Time;durP1;ratioP1;P1;durP2;ratioP2;P2;SDS_P1;SDS_P2;PMS_P1;PMS_P2;Temp;Humidity;BMP_temperature;BMP_pressure;BME280_temperature;BME280_humidity;BME280_pressure;Samples;Min_cycle;Max_cycle;Signal;HPM_P1;HPM_P2
2024/01/19 00:00:45;;;;;;;14.48;11.50;;;;;;;8.42;72.12;92796.22;5113972;28;20396;-67
2024/01/19 00:03:10;;;;;;;16.40;13.20;;;;;;;7.94;74.75;92793.28;5114416;28;20106;-67
2024/01/19 00:05:36;;;;;;;14.48;12.27;;;;;;;8.24;74.41;92797.47;5113770;28;20651;-67
2024/01/19 00:08:02;;;;;;;15.48;11.90;;;;;;;8.29;73.29;92809.75;5113721;28;20040;-67
2024/01/19 00:10:27;;;;;;;16.88;12.77;;;;;;;8.24;74.10;92808.06;5113773;28;20032;-67
2024/01/19 00:12:52;;;;;;;16.85;12.18;;;;;;;8.28;73.75;92795.72;5113694;28;20042;-67
2024/01/19 00:15:18;;;;;;;15.43;12.38;;;;;;;8.53;71.90;92805.34;5113804;28;20438;-67
2024/01/19 00:17:43;;;;;;;15.52;12.30;;;;;;;8.77;71.46;92819.81;5114122;28;20111;-67
2024/01/19 00:20:10;;;;;;;13.15;11.15;;;;;;;8.78;70.65;92810.75;5113756;28;20612;-67
2024/01/19 00:22:35;;;;;;;15.88;12.23;;;;;;;8.37;71.68;92787.69;5112703;28;20520;-67
2024/01/19 00:25:02;;;;;;;16.50;12.02;;;;;;;8.35;73.04;92803.94;5113094;28;20060;-67
2024/01/19 00:27:29;;;;;;;15.18;12.07;;;;;;;8.72;71.93;92820.00;5113778;28;20019;-67
2024/01/19 00:29:55;;;;;;;17.92;12.35;;;;;;;8.30;72.46;92792.75;5113894;28;20395;-67
2024/01/19 00:32:20;;;;;;;18.08;13.05;;;;;;;8.09;75.00;92814.69;5094915;28;20165;-67
2024/01/19 00:34:45;;;;;;;15.05;10.63;;;;;;;8.07;74.66;92808.19;5113164;28;20038;-67
2024/01/19 00:37:11;;;;;;;13.60;10.10;;;;;;;8.05;74.14;92794.47;5113376;28;20683;-67
2024/01/19 00:39:36;;;;;;;12.40;9.50;;;;;;;7.91;75.14;92801.88;5113459;28;20036;-67
2024/01/19 00:42:02;;;;;;;11.85;8.18;;;;;;;8.35;73.87;92821.69;5113724;28;20063;-67
2024/01/19 00:44:28;;;;;;;13.77;9.18;;;;;;;8.51;72.95;92823.44;5113037;28;20027;-67
2024/01/19 00:46:54;;;;;;;14.00;9.63;;;;;;;8.63;72.04;92814.00;5112891;28;20567;-67
2024/01/19 00:49:19;;;;;;;13.10;9.80;;;;;;;8.36;73.30;92820.63;5113190;28;20119;-67
2024/01/19 00:51:45;;;;;;;14.63;9.30;;;;;;;8.62;72.25;92833.66;5112138;28;20243;-67
2024/01/19 00:54:10;;;;;;;13.73;9.82;;;;;;;8.60;71.59;92820.75;5111969;28;20023;-67
2024/01/19 00:56:35;;;;;;;13.88;8.25;;;;;;;8.32;72.89;92815.16;5111374;28;20052;-67
2024/01/19 00:59:01;;;;;;;15.05;8.75;;;;;;;8.33;73.49;92821.25;5111663;28;20451;-67
2024/01/19 01:01:26;;;;;;;11.75;7.55;;;;;;;7.98;74.08;92821.44;5111876;28;20031;-66
2024/01/19 01:03:52;;;;;;;11.13;8.43;;;;;;;7.67;76.71;92837.63;5111452;28;20059;-67
2024/01/19 01:06:17;;;;;;;13.25;9.93;;;;;;;7.27;77.64;92818.63;5111581;28;20027;-67
2024/01/19 01:08:43;;;;;;;12.75;8.43;;;;;;;7.57;77.50;92837.19;5112416;28;20474;-67
2024/01/19 01:11:08;;;;;;;9.95;7.50;;;;;;;7.80;75.84;92825.28;5112370;28;20041;-67
2024/01/19 01:13:34;;;;;;;9.52;7.80;;;;;;;7.70;76.70;92822.97;5111651;28;20058;-67
2024/01/19 01:16:01;;;;;;;10.10;7.03;;;;;;;8.14;74.79;92842.88;5112055;28;20051;-67
2024/01/19 01:18:26;;;;;;;9.02;6.53;;;;;;;7.83;75.30;92818.56;5112358;28;20107;-67
2024/01/19 01:20:52;;;;;;;10.10;7.00;;;;;;;7.96;74.71;92812.28;5113075;28;20106;-67
2024/01/19 01:23:18;;;;;;;6.15;5.18;;;;;;;8.27;73.10;92833.91;5112522;28;20028;-67
2024/01/19 01:25:44;;;;;;;5.93;4.57;;;;;;;8.13;73.10;92817.47;5112326;28;20073;-67
2024/01/19 01:28:09;;;;;;;7.07;4.75;;;;;;;7.77;75.17;92828.59;5112355;28;20625;-67
2024/01/19 01:30:34;;;;;;;6.03;4.45;;;;;;;7.86;75.46;92812.66;5111978;28;20376;-67
2024/01/19 01:33:00;;;;;;;5.55;3.60;;;;;;;7.80;74.56;92806.75;5112146;28;20022;-67
2024/01/19 01:35:25;;;;;;;4.07;3.67;;;;;;;8.01;74.87;92825.34;5111770;28;20034;-67
2024/01/19 01:37:50;;;;;;;6.57;4.90;;;;;;;7.34;76.56;92810.19;5111900;28;20563;-66
2024/01/19 01:40:16;;;;;;;5.13;4.20;;;;;;;7.66;76.59;92814.13;5112116;28;20082;-67
2024/01/19 01:42:41;;;;;;;23.63;16.35;;;;;;;8.12;73.58;92813.25;5112076;28;20031;-67
2024/01/19 01:45:07;;;;;;;9.48;7.00;;;;;;;8.23;72.94;92817.09;5112485;28;20024;-67
2024/01/19 01:47:33;;;;;;;8.00;6.40;;;;;;;8.36;71.95;92831.22;5111550;28;20035;-67
2024/01/19 01:49:59;;;;;;;11.82;7.90;;;;;;;7.87;74.05;92814.22;5111920;28;20028;-67
2024/01/19 01:52:24;;;;;;;13.13;7.50;;;;;;;8.11;73.53;92820.47;5111717;28;20072;-67
2024/01/19 01:54:51;;;;;;;8.20;5.38;;;;;;;8.19;72.43;92800.31;5111943;28;20096;-67
2024/01/19 01:57:20;;;;;;;6.45;4.88;;;;;;;8.56;71.39;92831.19;5111931;28;20019;-67
2024/01/19 01:59:46;;;;;;;7.30;6.03;;;;;;;8.06;73.27;92822.50;5111871;28;20019;-67
2024/01/19 02:02:12;;;;;;;12.63;6.22;;;;;;;8.24;72.51;92808.06;5111803;28;20244;-66
2024/01/19 02:04:39;;;;;;;7.55;5.93;;;;;;;8.51;71.65;92834.03;5111507;28;20541;-67
2024/01/19 02:07:04;;;;;;;5.82;4.28;;;;;;;8.34;71.42;92823.56;5111791;28;20032;-67
2024/01/19 02:09:29;;;;;;;7.10;4.63;;;;;;;8.24;72.60;92823.94;5092879;28;20056;-65
2024/01/19 02:11:55;;;;;;;7.18;4.90;;;;;;;8.52;71.06;92825.00;5111970;28;20019;-67
2024/01/19 02:14:20;;;;;;;6.68;4.38;;;;;;;8.57;69.86;92816.06;5111654;28;20427;-67
2024/01/19 02:16:46;;;;;;;7.57;5.68;;;;;;;8.40;70.87;92818.88;5111579;28;20024;-67
2024/01/19 02:19:11;;;;;;;6.18;4.63;;;;;;;8.23;71.13;92800.44;5092932;28;20051;-67
2024/01/19 02:21:36;;;;;;;7.80;5.13;;;;;;;8.34;70.60;92815.63;5111390;28;20500;-67
2024/01/19 02:24:04;;;;;;;8.63;4.53;;;;;;;8.38;70.79;92829.78;5111690;28;20082;-67
2024/01/19 02:26:34;;;;;;;5.38;4.18;;;;;;;8.56;69.75;92839.16;5111181;28;20130;-67
2024/01/19 02:29:00;;;;;;;6.53;4.25;;;;;;;7.80;72.63;92832.47;5092868;28;20515;-67
2024/01/19 02:31:25;;;;;;;5.53;4.32;;;;;;;8.19;71.14;92849.84;5111248;28;20032;-67
2024/01/19 02:33:51;;;;;;;5.00;4.40;;;;;;;8.42;69.90;92854.53;5111335;28;20039;-67
2024/01/19 02:36:17;;;;;;;6.88;4.75;;;;;;;8.56;68.37;92841.00;5111083;28;20015;-67
2024/01/19 02:38:43;;;;;;;9.13;4.85;;;;;;;8.59;68.04;92845.69;5111580;28;20016;-67
2024/01/19 02:41:08;;;;;;;5.97;5.38;;;;;;;8.65;66.92;92852.34;5111105;28;20527;-67
2024/01/19 02:43:34;;;;;;;9.63;6.22;;;;;;;8.59;67.73;92853.63;5110955;28;20118;-67
2024/01/19 02:45:59;;;;;;;7.35;5.70;;;;;;;8.69;68.38;92868.38;5111102;28;20032;-67
2024/01/19 02:48:24;;;;;;;7.15;4.57;;;;;;;8.72;68.30;92862.41;5110953;28;20031;-67
2024/01/19 02:50:51;;;;;;;5.75;4.93;;;;;;;8.78;67.65;92869.09;5111439;28;20020;-67
2024/01/19 02:53:16;;;;;;;5.40;4.05;;;;;;;8.68;67.21;92864.16;5111232;28;20023;-67
2024/01/19 02:55:41;;;;;;;5.55;4.70;;;;;;;8.37;67.29;92838.81;5111093;28;20392;-68
2024/01/19 02:58:07;;;;;;;4.40;3.90;;;;;;;8.68;67.58;92880.06;5111002;28;20030;-67
2024/01/19 03:00:32;;;;;;;5.15;3.95;;;;;;;8.76;66.82;92885.31;5111012;28;20388;-67
2024/01/19 03:02:57;;;;;;;5.25;3.55;;;;;;;8.76;66.31;92879.22;5111462;28;20016;-67
2024/01/19 03:05:23;;;;;;;4.88;3.25;;;;;;;8.72;66.57;92868.50;5110907;28;20411;-67
2024/01/19 03:07:48;;;;;;;5.82;3.75;;;;;;;8.53;67.27;92873.47;5110751;28;20028;-67
2024/01/19 03:10:14;;;;;;;5.25;3.35;;;;;;;8.65;66.89;92886.03;5111091;28;20599;-67
2024/01/19 03:12:39;;;;;;;4.00;3.25;;;;;;;8.45;66.48;92845.94;5110808;28;20033;-67
2024/01/19 03:15:05;;;;;;;3.42;2.97;;;;;;;8.72;66.52;92875.66;5093153;28;20024;-67
2024/01/19 03:17:32;;;;;;;4.03;2.45;;;;;;;8.75;65.95;92869.75;5110705;28;20040;-67
2024/01/19 03:19:58;;;;;;;4.32;3.08;;;;;;;8.71;65.83;92866.94;5110748;28;20035;-67
2024/01/19 03:22:24;;;;;;;4.68;3.25;;;;;;;8.80;65.58;92878.28;5092459;28;20035;-67
2024/01/19 03:24:49;;;;;;;3.53;2.90;;;;;;;8.70;65.64;92857.47;5110666;28;20035;-66
2024/01/19 03:27:14;;;;;;;6.38;2.25;;;;;;;8.68;64.72;92874.78;5110856;28;20524;-67
2024/01/19 03:29:40;;;;;;;4.82;2.40;;;;;;;8.44;65.66;92860.28;5110782;28;20032;-67
2024/01/19 03:32:05;;;;;;;3.30;2.50;;;;;;;8.53;66.08;92855.69;5110645;28;20112;-66
2024/01/19 03:34:31;;;;;;;3.58;2.50;;;;;;;8.51;65.20;92855.22;5110575;28;20730;-67
2024/01/19 03:36:56;;;;;;;2.17;1.80;;;;;;;8.17;66.69;92849.41;5111899;28;20027;-67
2024/01/19 03:39:23;;;;;;;4.03;1.88;;;;;;;8.38;65.28;92863.44;5114499;28;20035;-67
2024/01/19 03:41:48;;;;;;;5.25;1.85;;;;;;;8.29;65.83;92875.97;5114957;28;20073;-66
2024/01/19 03:44:13;;;;;;;3.38;2.45;;;;;;;7.77;68.22;92872.81;5114302;28;20036;-67
2024/01/19 03:46:39;;;;;;;2.75;1.73;;;;;;;7.94;67.75;92872.72;5114169;28;20040;-66
2024/01/19 03:49:05;;;;;;;2.92;2.17;;;;;;;8.12;65.73;92888.19;5114228;28;20019;-67
2024/01/19 03:51:30;;;;;;;6.80;2.90;;;;;;;8.07;65.72;92879.69;5114057;28;20032;-67
2024/01/19 03:53:55;;;;;;;2.63;2.40;;;;;;;8.17;65.37;92895.19;5114821;28;20108;-66
2024/01/19 03:56:21;;;;;;;5.70;3.00;;;;;;;8.11;65.88;92897.25;5114042;28;20384;-67
2024/01/19 03:58:46;;;;;;;3.67;2.72;;;;;;;8.02;66.83;92875.31;5114031;28;20028;-67
2024/01/19 04:01:12;;;;;;;2.92;2.30;;;;;;;8.14;66.06;92883.38;5114081;28;20118;-67
2024/01/19 04:03:37;;;;;;;4.35;2.92;;;;;;;8.08;66.03;92886.50;5113640;28;20042;-67
2024/01/19 04:06:03;;;;;;;3.33;2.40;;;;;;;8.06;66.76;92901.94;5114385;28;20054;-67
2024/01/19 04:08:28;;;;;;;3.30;2.00;;;;;;;8.05;67.00;92895.09;5113671;28;20078;-67
2024/01/19 04:10:54;;;;;;;5.78;2.33;;;;;;;8.09;66.62;92890.72;5113814;28;20035;-67
2024/01/19 04:13:19;;;;;;;5.97;2.75;;;;;;;8.19;67.07;92911.53;5113629;28;20027;-67
2024/01/19 04:15:45;;;;;;;2.92;2.30;;;;;;;8.23;66.76;92901.06;5113447;28;20089;-67
2024/01/19 04:18:10;;;;;;;3.40;2.30;;;;;;;8.23;66.44;92880.66;5114003;28;20149;-66
2024/01/19 04:20:36;;;;;;;5.22;2.80;;;;;;;8.20;66.25;92881.31;5113573;28;20059;-67
2024/01/19 04:23:02;;;;;;;2.92;2.10;;;;;;;8.28;66.22;92883.13;5113631;28;20027;-67
2024/01/19 04:25:28;;;;;;;3.03;2.20;;;;;;;8.39;65.78;92889.63;5113244;28;20051;-67
2024/01/19 04:27:53;;;;;;;3.22;2.70;;;;;;;8.38;65.96;92881.97;5113525;28;20031;-67
2024/01/19 04:30:18;;;;;;;4.07;2.75;;;;;;;8.19;66.67;92879.75;5113829;28;20496;-67
2024/01/19 04:32:44;;;;;;;3.25;2.65;;;;;;;8.33;66.35;92890.13;5113830;28;20019;-67
2024/01/19 04:35:09;;;;;;;3.63;2.90;;;;;;;8.28;65.74;92877.06;5113123;28;20497;-67
2024/01/19 04:37:34;;;;;;;5.93;3.30;;;;;;;8.03;67.23;92892.75;5113067;28;20572;-67
2024/01/19 04:40:00;;;;;;;3.90;3.00;;;;;;;7.88;67.08;92876.63;5112952;28;20073;-67
2024/01/19 04:42:25;;;;;;;3.60;2.80;;;;;;;8.03;66.82;92891.97;5113027;28;20032;-67
2024/01/19 04:44:51;;;;;;;3.85;2.70;;;;;;;7.21;69.82;92878.06;5113527;28;20473;-67
2024/01/19 04:47:16;;;;;;;5.57;2.58;;;;;;;6.87;72.70;92899.25;5113077;28;20056;-67
2024/01/19 04:49:42;;;;;;;4.43;3.40;;;;;;;6.85;73.50;92907.47;5112024;28;20049;-67
2024/01/19 04:52:07;;;;;;;3.10;2.80;;;;;;;7.16;71.07;92888.03;5113037;28;20020;-67
2024/01/19 04:54:33;;;;;;;6.93;3.08;;;;;;;6.86;72.36;92898.47;5113068;28;20058;-67
2024/01/19 04:56:58;;;;;;;5.10;3.78;;;;;;;7.33;70.44;92906.53;5113252;28;20476;-67
2024/01/19 04:59:23;;;;;;;40.88;24.45;;;;;;;7.27;70.34;92903.25;5112938;28;20036;-66
2024/01/19 05:01:49;;;;;;;8.82;6.30;;;;;;;7.39;70.12;92913.19;5112749;28;20035;-67
2024/01/19 05:04:14;;;;;;;5.60;4.30;;;;;;;7.53;68.97;92910.38;5112772;28;20122;-67
2024/01/19 05:06:39;;;;;;;8.52;4.45;;;;;;;7.70;68.53;92916.38;5112652;28;20028;-67
2024/01/19 05:09:05;;;;;;;4.53;3.78;;;;;;;7.60;68.51;92916.72;5112945;28;20480;-68
2024/01/19 05:11:30;;;;;;;5.32;3.58;;;;;;;7.68;67.93;92907.97;5094375;28;20031;-68
2024/01/19 05:13:56;;;;;;;4.50;3.17;;;;;;;7.65;67.39;92895.38;5111712;28;20097;-68
2024/01/19 05:16:21;;;;;;;4.25;2.97;;;;;;;7.82;67.04;92917.63;5112589;28;20527;-67
2024/01/19 05:18:47;;;;;;;5.30;2.92;;;;;;;7.82;66.92;92909.69;5112134;28;20385;-66
2024/01/19 05:21:12;;;;;;;4.68;2.78;;;;;;;7.98;65.77;92918.63;5113094;28;20110;-67
2024/01/19 05:23:37;;;;;;;3.30;2.67;;;;;;;7.63;67.30;92913.44;5112240;28;20036;-67
2024/01/19 05:26:06;;;;;;;4.82;3.65;;;;;;;7.54;68.71;92922.47;5111989;28;20582;-67
2024/01/19 05:28:36;;;;;;;2.95;2.20;;;;;;;7.56;68.27;92901.78;5112015;28;20035;-67
2024/01/19 05:31:02;;;;;;;3.65;2.70;;;;;;;7.86;67.79;92931.78;5094132;28;20054;-68
2024/01/19 05:33:30;;;;;;;3.40;2.80;;;;;;;7.68;67.98;92929.13;5112040;28;20043;-68
2024/01/19 05:35:55;;;;;;;4.78;3.25;;;;;;;7.50;69.83;92929.50;5112158;28;20480;-68
2024/01/19 05:38:22;;;;;;;3.50;2.80;;;;;;;7.41;70.01;92924.22;5111310;28;20039;-68
2024/01/19 05:40:47;;;;;;;3.03;2.55;;;;;;;7.34;70.18;92923.91;5110820;28;20089;-68
2024/01/19 05:43:13;;;;;;;3.03;2.53;;;;;;;7.38;70.95;92924.88;5110389;28;20031;-66
2024/01/19 05:45:38;;;;;;;4.03;3.30;;;;;;;7.22;71.42;92947.59;5110194;28;20499;-65
2024/01/19 05:48:04;;;;;;;4.95;2.88;;;;;;;7.41;70.99;92934.81;5111137;28;20118;-68
2024/01/19 05:50:29;;;;;;;3.60;3.10;;;;;;;7.21;71.70;92922.22;5110880;28;20059;-66
2024/01/19 05:52:57;;;;;;;5.32;2.95;;;;;;;7.44;70.74;92913.00;5093236;28;20055;-66
2024/01/19 05:55:22;;;;;;;4.80;3.30;;;;;;;7.77;69.21;92933.69;5111551;28;20035;-65
2024/01/19 05:57:47;;;;;;;7.75;3.65;;;;;;;7.80;69.32;92919.81;5111299;28;20114;-66
2024/01/19 06:00:13;;;;;;;6.65;3.45;;;;;;;7.90;68.62;92920.25;5111700;28;20079;-65
2024/01/19 06:02:38;;;;;;;4.28;3.08;;;;;;;7.94;68.03;92913.22;5111907;28;20035;-66
2024/01/19 06:05:04;;;;;;;5.78;3.28;;;;;;;8.08;67.13;92920.94;5111272;28;20053;-66
2024/01/19 06:07:32;;;;;;;7.97;4.35;;;;;;;7.07;71.31;92918.97;5110953;28;20492;-66
2024/01/19 06:09:58;;;;;;;7.43;4.25;;;;;;;7.06;72.74;92938.56;5093116;28;20508;-66
2024/01/19 06:12:23;;;;;;;6.10;4.43;;;;;;;7.42;70.73;92952.25;5111414;28;20027;-67
2024/01/19 06:14:48;;;;;;;7.38;4.40;;;;;;;7.54;69.58;92944.44;5111987;28;20077;-67
2024/01/19 06:17:15;;;;;;;8.13;4.05;;;;;;;7.48;69.22;92948.34;5110739;28;20044;-67
2024/01/19 06:19:41;;;;;;;7.93;5.53;;;;;;;7.51;69.32;92937.13;5111040;28;20572;-67
2024/01/19 06:22:06;;;;;;;13.48;5.35;;;;;;;7.24;69.42;92940.09;5111301;28;20051;-67
2024/01/19 06:24:35;;;;;;;6.18;4.13;;;;;;;7.30;69.41;92901.84;5111502;28;20051;-67
2024/01/19 06:27:00;;;;;;;10.85;4.43;;;;;;;6.93;72.85;92966.72;5111574;28;20043;-67
2024/01/19 06:29:26;;;;;;;5.10;3.85;;;;;;;7.18;72.25;92973.91;5111184;28;20408;-66
2024/01/19 06:31:51;;;;;;;8.27;3.97;;;;;;;7.41;71.08;92961.28;5111292;28;20039;-67
2024/01/19 06:34:17;;;;;;;4.45;3.28;;;;;;;7.56;69.80;92966.06;5111404;28;20047;-67
2024/01/19 06:36:46;;;;;;;7.88;3.95;;;;;;;7.09;71.37;92948.53;5111328;28;20460;-66
2024/01/19 06:39:14;;;;;;;8.88;4.07;;;;;;;7.20;70.91;92966.41;5111641;28;20055;-66
2024/01/19 06:41:41;;;;;;;9.07;7.13;;;;;;;7.48;69.96;92981.97;5111285;28;20031;-67
2024/01/19 06:44:09;;;;;;;7.45;5.18;;;;;;;7.46;68.99;92950.53;5110507;28;20122;-67
2024/01/19 06:46:34;;;;;;;5.78;5.07;;;;;;;7.57;68.06;92964.97;5111351;28;20114;-67
2024/01/19 06:49:00;;;;;;;8.93;4.18;;;;;;;7.84;67.98;92990.31;5110980;28;20078;-67
2024/01/19 06:51:28;;;;;;;7.15;3.97;;;;;;;7.77;67.47;92991.91;5110891;28;20023;-67
2024/01/19 06:53:54;;;;;;;7.80;3.78;;;;;;;7.91;67.18;92992.50;5111340;28;20020;-67
2024/01/19 06:56:19;;;;;;;9.68;3.45;;;;;;;8.01;67.10;92992.16;5110685;28;20465;-67
2024/01/19 06:58:45;;;;;;;5.47;3.35;;;;;;;8.09;67.12;92997.41;5110766;28;20084;-66
2024/01/19 07:01:10;;;;;;;7.43;4.20;;;;;;;8.12;67.05;92991.47;5110695;28;20373;-67
2024/01/19 07:03:35;;;;;;;11.70;6.75;;;;;;;8.15;66.87;93001.47;5110594;28;20057;-67
2024/01/19 07:06:01;;;;;;;12.10;7.05;;;;;;;8.22;66.68;93016.84;5111454;28;20481;-66
2024/01/19 07:08:26;;;;;;;10.65;7.60;;;;;;;7.81;67.84;92971.66;5110350;28;20118;-66
2024/01/19 07:10:52;;;;;;;11.82;6.28;;;;;;;7.41;71.08;93006.25;5110935;28;20028;-67
2024/01/19 07:13:17;;;;;;;10.38;6.20;;;;;;;7.81;69.96;93014.00;5114695;28;20107;-66
2024/01/19 07:15:42;;;;;;;11.93;6.45;;;;;;;7.59;70.22;93012.28;5095969;28;20023;-67
2024/01/19 07:18:08;;;;;;;8.80;6.55;;;;;;;7.46;70.36;92984.13;5114933;28;20118;-67
2024/01/19 07:20:33;;;;;;;10.15;5.55;;;;;;;7.22;72.77;93011.06;5096268;28;20028;-67
2024/01/19 07:23:03;;;;;;;7.47;5.00;;;;;;;7.43;72.73;93019.94;5113584;28;20554;-67
2024/01/19 07:25:28;;;;;;;47.40;26.67;;;;;;;7.53;71.78;93003.72;5095446;28;20093;-68
2024/01/19 07:27:54;;;;;;;17.27;10.68;;;;;;;7.73;71.29;92994.38;5114638;28;20691;-68
2024/01/19 07:30:19;;;;;;;15.00;9.63;;;;;;;8.12;70.04;93002.06;5114467;28;20035;-68
2024/01/19 07:32:45;;;;;;;15.70;8.82;;;;;;;8.22;68.67;93000.94;5114413;28;20020;-67
2024/01/19 07:35:10;;;;;;;11.48;8.10;;;;;;;8.42;68.28;92994.94;5114243;28;20059;-68
2024/01/19 07:37:35;;;;;;;13.90;10.10;;;;;;;8.61;67.61;93007.03;5114202;28;20028;-68
2024/01/19 07:40:01;;;;;;;16.05;12.68;;;;;;;8.66;67.89;92988.31;5113447;28;20055;-67
2024/01/19 07:42:26;;;;;;;18.63;13.15;;;;;;;8.68;68.21;93002.00;5113783;28;20376;-68
2024/01/19 07:44:51;;;;;;;19.40;12.90;;;;;;;8.56;68.02;92963.69;5114578;28;20057;-68
2024/01/19 07:47:17;;;;;;;16.17;11.10;;;;;;;8.47;68.45;92986.03;5114094;28;20034;-68
2024/01/19 07:49:42;;;;;;;15.07;11.95;;;;;;;8.76;68.12;93017.84;5114019;28;20085;-67
2024/01/19 07:52:07;;;;;;;9.80;7.43;;;;;;;8.45;68.47;93004.94;5113805;28;20047;-68
2024/01/19 07:54:33;;;;;;;11.73;7.78;;;;;;;8.55;69.38;93019.69;5113565;28;20027;-68
2024/01/19 07:56:58;;;;;;;18.02;8.30;;;;;;;8.77;68.96;93015.97;5114205;28;20546;-68
2024/01/19 07:59:23;;;;;;;15.23;10.52;;;;;;;8.31;70.29;93009.66;5113582;28;20039;-68
2024/01/19 08:01:49;;;;;;;14.38;10.38;;;;;;;8.24;70.33;92987.41;5095292;28;20039;-68
2024/01/19 08:04:15;;;;;;;15.18;11.23;;;;;;;8.69;69.51;93007.00;5113518;28;20103;-68
2024/01/19 08:06:41;;;;;;;13.98;9.48;;;;;;;8.70;69.55;93011.19;5113730;28;20062;-68
2024/01/19 08:09:07;;;;;;;13.95;9.75;;;;;;;8.77;69.37;93006.16;5114254;28;20026;-67
2024/01/19 08:11:33;;;;;;;14.75;10.52;;;;;;;8.53;70.31;93011.28;5113229;28;20508;-68
2024/01/19 08:13:58;;;;;;;15.90;12.32;;;;;;;8.61;70.69;92996.44;5113341;28;20031;-68
2024/01/19 08:16:24;;;;;;;17.33;12.98;;;;;;;8.91;69.96;93022.59;5113220;28;20105;-68
2024/01/19 08:18:49;;;;;;;19.50;11.50;;;;;;;8.91;69.22;93014.66;5112909;28;20511;-67
2024/01/19 08:21:14;;;;;;;37.53;23.65;;;;;;;8.43;69.95;93012.41;5113282;28;20020;-68
2024/01/19 08:23:40;;;;;;;19.08;11.40;;;;;;;8.15;72.40;93029.81;5112037;28;20038;-67
2024/01/19 08:26:06;;;;;;;17.92;11.02;;;;;;;8.25;72.32;93050.66;5112218;28;20043;-68
2024/01/19 08:28:31;;;;;;;13.48;10.13;;;;;;;8.06;73.05;93034.34;5113146;28;20088;-68
2024/01/19 08:30:57;;;;;;;18.77;12.07;;;;;;;8.07;73.47;93046.50;5113028;28;20024;-68
2024/01/19 08:33:22;;;;;;;12.82;8.98;;;;;;;8.40;71.66;93034.25;5113076;28;20042;-68
2024/01/19 08:35:48;;;;;;;14.57;11.18;;;;;;;8.24;72.68;93046.44;5112858;28;20012;-68
2024/01/19 08:38:13;;;;;;;13.05;9.55;;;;;;;8.63;71.68;93049.91;5110495;28;20492;-66
2024/01/19 08:40:39;;;;;;;22.05;13.70;;;;;;;8.11;72.46;93042.91;5112472;28;20111;-68
2024/01/19 08:43:04;;;;;;;13.73;9.77;;;;;;;8.39;72.49;93045.94;5112822;28;20032;-67
2024/01/19 08:45:29;;;;;;;11.60;8.30;;;;;;;8.42;71.51;93055.91;5112955;28;20019;-67
2024/01/19 08:47:58;;;;;;;13.52;8.43;;;;;;;7.97;72.49;93052.88;5094898;28;20547;-67
2024/01/19 08:50:24;;;;;;;15.38;9.35;;;;;;;8.07;72.05;93051.81;5112974;28;20065;-67
2024/01/19 08:52:50;;;;;;;11.20;7.22;;;;;;;7.93;73.40;93067.84;5113033;28;20027;-68
2024/01/19 08:55:20;;;;;;;10.35;4.55;;;;;;;8.01;72.15;93053.84;5112757;28;20024;-67
2024/01/19 08:57:45;;;;;;;12.00;6.00;;;;;;;7.62;73.85;93062.72;5112821;28;20040;-68
2024/01/19 09:00:11;;;;;;;9.73;5.65;;;;;;;7.40;74.62;93062.09;5113480;28;20050;-67
2024/01/19 09:02:36;;;;;;;11.65;6.10;;;;;;;7.22;75.74;93050.72;5112310;28;20114;-68
2024/01/19 09:05:02;;;;;;;9.50;5.35;;;;;;;7.62;74.98;93062.72;5112279;28;20549;-68
2024/01/19 09:07:27;;;;;;;7.72;5.50;;;;;;;7.47;74.84;93049.19;5111803;28;20036;-68
2024/01/19 09:09:52;;;;;;;11.95;6.30;;;;;;;7.37;75.66;93055.56;5111888;28;20027;-67
2024/01/19 09:12:18;;;;;;;12.60;10.13;;;;;;;7.75;75.06;93036.44;5112307;28;20060;-67
2024/01/19 09:14:43;;;;;;;21.60;14.55;;;;;;;7.54;74.14;93033.59;5112568;28;20047;-67
2024/01/19 09:17:09;;;;;;;13.63;8.60;;;;;;;7.71;73.74;93031.75;5110814;28;20027;-67
2024/01/19 09:19:34;;;;;;;11.95;7.32;;;;;;;7.44;75.33;93033.91;5111674;28;20097;-68
2024/01/19 09:21:59;;;;;;;12.55;7.15;;;;;;;7.73;74.40;93031.44;5111338;28;20172;-67
2024/01/19 09:24:26;;;;;;;11.25;6.85;;;;;;;7.80;75.38;93025.69;5111956;28;20388;-67
2024/01/19 09:26:51;;;;;;;10.45;6.80;;;;;;;7.83;74.76;93001.22;5112573;28;20051;-68
2024/01/19 09:29:17;;;;;;;10.15;6.25;;;;;;;8.12;72.71;93009.25;5112156;28;20031;-68
2024/01/19 09:31:46;;;;;;;7.93;5.13;;;;;;;8.47;72.29;93029.22;5111986;28;20027;-67
2024/01/19 09:34:12;;;;;;;13.80;8.20;;;;;;;8.00;74.19;93020.50;5111172;28;20030;-67
2024/01/19 09:36:39;;;;;;;14.07;8.98;;;;;;;8.22;74.15;93011.53;5111753;28;20027;-68
2024/01/19 09:39:05;;;;;;;15.82;7.75;;;;;;;8.10;74.60;93006.16;5111406;28;20106;-67
2024/01/19 09:41:45;;;;;;;13.30;5.63;;;;;;;8.01;73.06;92978.91;5111158;28;20036;-68
2024/01/19 09:44:12;;;;;;;11.60;6.45;;;;;;;8.28;73.56;93015.56;5111493;28;20259;-67
2024/01/19 09:47:03;;;;;;;13.00;5.85;;;;;;;8.35;74.11;93007.16;5110808;28;20031;-67
2024/01/19 09:49:59;;;;;;;12.15;5.82;;;;;;;8.51;72.83;93008.19;5108708;28;20491;-68
2024/01/19 09:52:49;;;;;;;11.60;5.53;;;;;;;8.40;72.77;93013.06;5108596;28;20039;-67
2024/01/19 09:55:16;;;;;;;10.32;4.88;;;;;;;8.56;72.17;92989.41;5109276;28;20088;-68
2024/01/19 09:57:47;;;;;;;19.30;5.60;;;;;;;8.62;71.83;93008.56;5109304;28;20055;-67
2024/01/19 10:00:14;;;;;;;14.82;6.20;;;;;;;8.78;71.99;93002.41;5109766;28;20110;-68
2024/01/19 10:02:45;;;;;;;12.15;5.97;;;;;;;8.55;71.45;92993.19;5109096;28;20034;-67
2024/01/19 10:05:15;;;;;;;9.93;5.32;;;;;;;8.50;72.21;92996.81;5110445;28;20073;-68
2024/01/19 10:07:48;;;;;;;12.85;5.95;;;;;;;8.93;71.53;93009.03;5110924;28;20043;-67
2024/01/19 10:10:15;;;;;;;8.77;4.90;;;;;;;9.37;70.19;92997.06;5111117;28;20055;-68
2024/01/19 10:12:41;;;;;;;10.48;5.97;;;;;;;9.53;67.60;92995.38;5111083;28;20038;-68
2024/01/19 10:15:13;;;;;;;12.20;5.55;;;;;;;9.78;67.05;93001.53;5111438;28;20472;-68
2024/01/19 10:17:40;;;;;;;10.68;5.50;;;;;;;9.44;67.68;92982.16;5111021;28;20030;-68
2024/01/19 10:20:09;;;;;;;11.50;4.70;;;;;;;9.05;69.13;92974.63;5110992;28;20056;-68
2024/01/19 10:22:34;;;;;;;14.82;6.00;;;;;;;9.59;68.05;92972.81;5110962;28;20046;-68
2024/01/19 10:25:11;;;;;;;12.23;5.68;;;;;;;9.68;66.43;92972.75;5110791;28;20400;-68
2024/01/19 10:27:45;;;;;;;13.50;4.60;;;;;;;9.37;66.25;92957.25;5110659;28;20092;-67
2024/01/19 10:30:20;;;;;;;9.10;4.57;;;;;;;9.34;66.89;92971.94;5111567;28;20093;-68
2024/01/19 10:32:48;;;;;;;10.50;3.67;;;;;;;9.37;62.88;92958.03;5110527;28;20247;-68
2024/01/19 10:35:19;;;;;;;11.25;4.22;;;;;;;9.82;59.87;92949.31;5111026;28;20034;-68
2024/01/19 10:37:45;;;;;;;3.88;1.70;;;;;;;10.08;56.33;92952.47;5110369;28;20028;-68
2024/01/19 10:40:23;;;;;;;20.30;5.93;;;;;;;9.99;61.77;92935.06;5110726;28;20084;-68
2024/01/19 10:42:54;;;;;;;11.55;6.25;;;;;;;10.00;65.06;92945.38;5109934;28;20039;-67
2024/01/19 10:45:25;;;;;;;11.90;7.28;;;;;;;9.99;64.96;92929.75;5111417;28;20023;-67
2024/01/19 10:47:59;;;;;;;10.82;6.28;;;;;;;9.93;61.47;92929.19;5115192;28;20016;-67
2024/01/19 10:50:28;;;;;;;10.98;4.97;;;;;;;10.05;58.77;92925.78;5114807;28;20523;-67
2024/01/19 10:52:55;;;;;;;18.63;5.82;;;;;;;9.79;61.89;92899.50;5114714;28;20085;-67
2024/01/19 10:55:23;;;;;;;10.00;5.07;;;;;;;9.81;61.32;92916.69;5115030;28;20069;-67
2024/01/19 10:57:52;;;;;;;13.77;5.43;;;;;;;9.69;61.36;92907.91;5114306;28;20523;-67
2024/01/19 11:00:21;;;;;;;9.32;6.05;;;;;;;10.12;62.13;92929.44;5115054;28;20107;-67
2024/01/19 11:02:49;;;;;;;10.55;6.00;;;;;;;10.09;60.58;92916.03;5115504;28;20024;-67
2024/01/19 11:05:17;;;;;;;8.65;5.00;;;;;;;10.21;60.18;92913.41;5115136;28;20518;-67
2024/01/19 11:07:42;;;;;;;9.20;3.40;;;;;;;10.39;58.62;92906.00;5114911;28;20202;-67
2024/01/19 11:10:08;;;;;;;11.27;3.53;;;;;;;10.61;57.42;92910.88;5115050;28;20644;-67
2024/01/19 11:12:38;;;;;;;8.13;4.07;;;;;;;11.03;55.99;92912.13;5114805;28;20027;-67
2024/01/19 11:15:09;;;;;;;10.05;4.00;;;;;;;11.22;54.80;92919.47;5115570;28;20031;-67
2024/01/19 11:17:36;;;;;;;4.03;2.50;;;;;;;11.24;51.90;92911.19;5114943;28;20028;-67
2024/01/19 11:20:04;;;;;;;7.25;3.03;;;;;;;11.40;51.31;92909.31;5114748;28;20024;-67
2024/01/19 11:22:30;;;;;;;6.00;1.50;;;;;;;11.61;50.62;92907.25;5114968;28;20034;-67
2024/01/19 11:25:02;;;;;;;5.97;1.55;;;;;;;11.66;49.21;92887.59;5114836;28;20488;-67
2024/01/19 11:27:30;;;;;;;3.70;1.45;;;;;;;11.69;49.75;92895.66;5114865;28;20053;-67
2024/01/19 11:30:08;;;;;;;3.80;1.70;;;;;;;11.93;50.30;92903.50;5115203;28;20020;-67
2024/01/19 11:32:34;;;;;;;3.72;1.20;;;;;;;12.02;48.60;92882.84;5114880;28;20032;-67